createdAt,value
2022-09-09T00:01:01.350Z,189.80
2022-09-09T00:03:36.978Z,189.10
2022-09-09T00:06:11.208Z,173.63
2022-09-09T00:08:48.279Z,169.37
2022-09-09T00:11:27.080Z,169.17
2022-09-09T00:14:01.257Z,166.20
2022-09-09T00:16:32.849Z,158.83
2022-09-09T00:19:06.242Z,162.27
2022-09-09T00:21:36.345Z,158.03
2022-09-09T00:24:11.821Z,163.63
2022-09-09T00:26:42.801Z,155.17
2022-09-09T00:29:17.305Z,157.17
2022-09-09T00:31:48.736Z,149.47
2022-09-09T00:34:21.191Z,141.20
2022-09-09T00:36:52.141Z,141.70
2022-09-09T00:39:26.825Z,136.47
2022-09-09T00:42:05.774Z,139.17
2022-09-09T00:44:36.353Z,139.70
2022-09-09T00:47:17.712Z,124.87
2022-09-09T00:49:59.261Z,125.73
2022-09-09T00:52:36.896Z,123.20
2022-09-09T00:55:10.157Z,121.63
2022-09-09T00:57:38.656Z,123.03
2022-09-09T01:00:25.347Z,121.80
2022-09-09T01:03:05.885Z,119.87
2022-09-09T01:05:40.368Z,119.03
2022-09-09T01:08:17.848Z,122.30
2022-09-09T01:10:51.654Z,112.97
2022-09-09T01:13:25.186Z,112.23
2022-09-09T01:15:56.318Z,111.93
2022-09-09T01:18:31.456Z,106.57
2022-09-09T01:21:07.664Z,108.47
2022-09-09T01:23:47.321Z,110.13
2022-09-09T01:26:35.125Z,100.37
2022-09-09T01:29:10.733Z,101.30
2022-09-09T01:31:44.802Z,102.33
2022-09-09T01:34:14.488Z,100.87
2022-09-09T01:36:46.429Z,95.23
2022-09-09T01:39:14.981Z,92.53
2022-09-09T01:41:45.230Z,96.57
2022-09-09T01:44:15.526Z,88.63
2022-09-09T01:46:46.550Z,94.13
2022-09-09T01:49:20.405Z,87.27
2022-09-09T01:51:52.081Z,86.63
2022-09-09T01:54:24.849Z,87.97
2022-09-09T01:57:02.686Z,93.33
2022-09-09T01:59:43.239Z,86.33
2022-09-09T02:02:14.440Z,85.40
2022-09-09T02:04:50.863Z,91.33
2022-09-09T02:07:32.993Z,78.23
2022-09-09T02:10:04.627Z,77.87
2022-09-09T02:12:34.599Z,80.13
2022-09-09T02:15:12.052Z,77.03
2022-09-09T02:17:52.874Z,78.40
2022-09-09T02:20:38.200Z,78.17
2022-09-09T02:23:07.852Z,76.50
2022-09-09T02:25:38.883Z,79.17
2022-09-09T02:28:21.890Z,75.33
2022-09-09T02:30:56.087Z,74.43
2022-09-09T02:33:48.018Z,74.90
2022-09-09T02:36:24.246Z,76.80
2022-09-09T02:39:22.897Z,72.23
2022-09-09T02:41:57.811Z,67.67
2022-09-09T02:45:10.879Z,66.53
2022-09-09T02:47:59.720Z,65.60
2022-09-09T02:50:44.908Z,71.43
2022-09-09T02:53:19.601Z,75.03
2022-09-09T02:59:05.490Z,65.90
2022-09-09T03:01:42.866Z,66.17
2022-09-09T03:04:20.087Z,73.97
2022-09-09T03:06:50.831Z,71.10
2022-09-09T03:09:22.369Z,74.20
2022-09-09T03:11:51.685Z,70.73
2022-09-09T03:14:22.655Z,71.57
2022-09-09T03:16:57.626Z,67.23
2022-09-09T03:19:31.954Z,67.13
2022-09-09T03:22:05.504Z,63.93
2022-09-09T03:28:39.053Z,52.93
2022-09-09T03:35:17.005Z,50.80
2022-09-09T03:37:48.261Z,51.47
2022-09-09T03:40:50.785Z,57.23
2022-09-09T03:43:20.837Z,59.93
2022-09-09T03:45:49.458Z,58.40
2022-09-09T03:48:18.558Z,59.83
2022-09-09T03:50:48.921Z,57.20
2022-09-09T03:53:17.932Z,62.43
2022-09-09T03:55:46.826Z,61.20
2022-09-09T03:58:15.341Z,62.80
2022-09-09T04:00:46.117Z,60.27
2022-09-09T04:03:14.374Z,55.87
2022-09-09T04:05:43.307Z,62.40
2022-09-09T04:08:13.528Z,61.13
2022-09-09T04:10:42.990Z,53.93
2022-09-09T04:13:12.568Z,57.27
2022-09-09T04:15:41.242Z,55.20
2022-09-09T04:18:09.433Z,54.40
2022-09-09T04:20:37.577Z,56.10
2022-09-09T04:23:06.995Z,52.67
2022-09-09T04:25:36.952Z,58.43
2022-09-09T04:28:06.943Z,55.60
2022-09-09T04:30:40.770Z,55.00
2022-09-09T04:33:08.906Z,54.83
2022-09-09T04:35:39.568Z,52.07
2022-09-09T04:38:11.253Z,53.43
2022-09-09T04:40:43.302Z,60.60
2022-09-09T04:43:14.439Z,52.03
2022-09-09T04:45:44.367Z,54.53
2022-09-09T04:48:12.775Z,52.77
2022-09-09T04:50:41.549Z,54.47
2022-09-09T04:53:12.361Z,56.00
2022-09-09T04:55:42.314Z,58.20
2022-09-09T04:58:10.867Z,54.37
2022-09-09T05:00:42.458Z,55.57
2022-09-09T05:03:10.659Z,54.63
2022-09-09T05:05:38.873Z,52.13
2022-09-09T05:08:09.394Z,54.87
2022-09-09T05:10:39.804Z,57.13
2022-09-09T05:13:09.198Z,56.27
2022-09-09T05:15:38.470Z,53.77
2022-09-09T05:18:06.973Z,56.80
2022-09-09T05:20:37.363Z,57.27
2022-09-09T05:23:06.502Z,56.57
2022-09-09T05:25:35.113Z,54.33
2022-09-09T05:28:03.457Z,52.43
2022-09-09T05:30:32.913Z,51.73
2022-09-09T05:33:03.056Z,51.50
2022-09-09T05:35:33.959Z,57.10
2022-09-09T05:38:02.851Z,50.70
2022-09-09T05:40:31.358Z,57.37
2022-09-09T05:43:02.750Z,54.60
2022-09-09T05:45:32.204Z,49.50
2022-09-09T05:48:01.154Z,53.00
2022-09-09T05:50:31.604Z,52.37
2022-09-09T05:53:00.101Z,54.20
2022-09-09T05:55:28.679Z,54.70
2022-09-09T05:57:57.009Z,51.40
2022-09-09T06:00:29.094Z,55.10
2022-09-09T06:02:58.706Z,54.73
2022-09-09T06:05:28.321Z,51.03
2022-09-09T06:07:56.801Z,54.07
2022-09-09T06:10:25.961Z,53.73
2022-09-09T06:12:58.060Z,53.00
2022-09-09T06:15:26.070Z,54.70
2022-09-09T06:17:57.983Z,55.90
2022-09-09T06:20:26.327Z,57.00
2022-09-09T06:22:54.520Z,57.27
2022-09-09T06:25:22.880Z,52.63
2022-09-09T06:27:51.907Z,59.57
2022-09-09T06:30:20.305Z,55.17
2022-09-09T06:32:48.445Z,58.80
2022-09-09T06:35:17.918Z,55.87
2022-09-09T06:37:49.798Z,56.37
2022-09-09T06:40:20.352Z,53.93
2022-09-09T06:42:49.167Z,54.17
2022-09-09T06:45:34.216Z,52.97
2022-09-09T06:48:02.293Z,54.97
2022-09-09T06:50:32.649Z,57.73
2022-09-09T06:53:00.825Z,51.20
2022-09-09T06:55:29.342Z,52.37
2022-09-09T06:57:57.917Z,55.67
2022-09-09T07:00:26.612Z,50.53
2022-09-09T07:02:55.115Z,49.27
2022-09-09T07:05:24.394Z,48.23
2022-09-09T07:07:55.554Z,47.03
2022-09-09T07:10:24.458Z,45.47
2022-09-09T07:12:53.942Z,40.57
2022-09-09T07:15:24.569Z,38.70
2022-09-09T07:17:53.234Z,39.70
2022-09-09T07:20:21.835Z,37.70
2022-09-09T07:22:49.939Z,33.83
2022-09-09T07:25:19.582Z,33.47
2022-09-09T07:27:48.310Z,32.57
2022-09-09T07:30:24.192Z,35.27
2022-09-09T07:32:58.128Z,32.47
2022-09-09T07:35:27.170Z,34.80
2022-09-09T07:37:55.345Z,33.90
2022-09-09T07:40:24.768Z,28.13
2022-09-09T07:42:52.997Z,27.07
2022-09-09T07:45:21.198Z,25.80
2022-09-09T07:47:49.877Z,27.63
2022-09-09T07:50:18.429Z,24.90
2022-09-09T07:52:46.537Z,28.03
2022-09-09T07:55:16.061Z,24.37
2022-09-09T07:57:46.022Z,24.73
2022-09-09T08:00:16.542Z,22.57
2022-09-09T08:02:50.979Z,23.67
2022-09-09T08:05:19.577Z,22.40
2022-09-09T08:07:48.221Z,22.10
2022-09-09T08:10:17.087Z,24.87
2022-09-09T08:13:07.847Z,26.03
2022-09-09T08:15:36.602Z,21.23
2022-09-09T08:18:06.793Z,21.07
2022-09-09T08:20:35.915Z,21.77
2022-09-09T08:23:04.219Z,21.80
2022-09-09T08:25:32.401Z,22.03
2022-09-09T08:28:02.189Z,20.40
2022-09-09T08:30:30.942Z,20.10
2022-09-09T08:33:01.055Z,19.03
2022-09-09T08:35:33.802Z,19.87
2022-09-09T08:38:07.653Z,19.53
2022-09-09T08:40:42.040Z,19.93
2022-09-09T08:43:11.923Z,28.80
2022-09-09T08:45:50.541Z,26.20
2022-09-09T08:48:28.835Z,28.13
2022-09-09T08:51:02.900Z,26.73
2022-09-09T08:53:40.789Z,30.77
2022-09-09T08:56:13.103Z,29.53
2022-09-09T08:58:50.116Z,26.97
2022-09-09T09:01:34.524Z,29.10
2022-09-09T09:04:12.464Z,27.53
2022-09-09T09:06:49.348Z,29.93
2022-09-09T09:09:23.788Z,33.27
2022-09-09T09:11:54.364Z,33.93
2022-09-09T09:14:25.639Z,34.50
2022-09-09T09:17:01.001Z,33.60
2022-09-09T09:19:31.150Z,31.03
2022-09-09T09:22:04.407Z,35.17
2022-09-09T09:24:43.334Z,37.30
2022-09-09T09:27:15.116Z,37.07
2022-09-09T09:30:21.128Z,36.43
2022-09-09T09:32:43.120Z,39.23
2022-09-09T09:35:14.301Z,43.43
2022-09-09T09:40:35.235Z,44.43
2022-09-09T09:43:08.793Z,48.40
2022-09-09T09:45:55.388Z,45.00
2022-09-09T09:48:35.688Z,38.63
2022-09-09T09:51:14.177Z,41.33
2022-09-09T09:53:44.223Z,39.10
2022-09-09T09:56:15.784Z,41.93
2022-09-09T09:58:52.200Z,40.63
2022-09-09T10:01:28.013Z,43.77
2022-09-09T10:03:59.398Z,41.60
2022-09-09T10:06:32.430Z,42.63
2022-09-09T10:09:00.469Z,41.67
2022-09-09T10:11:43.633Z,45.57
2022-09-09T10:14:18.930Z,44.47
2022-09-09T10:16:56.849Z,45.80
2022-09-09T10:19:33.044Z,45.50
2022-09-09T10:22:17.918Z,45.70
2022-09-09T10:25:13.868Z,48.50
2022-09-09T10:27:57.809Z,43.37
2022-09-09T10:30:31.827Z,44.90
2022-09-09T10:33:07.829Z,47.60
2022-09-09T10:35:38.389Z,47.73
2022-09-09T10:38:20.362Z,47.17
2022-09-09T10:41:03.354Z,44.23
2022-09-09T10:43:48.536Z,47.83
2022-09-09T10:46:23.796Z,43.27
2022-09-09T10:49:11.941Z,45.03
2022-09-09T10:51:44.953Z,49.40
2022-09-09T10:54:26.755Z,47.27
2022-09-09T10:56:57.719Z,47.30
2022-09-09T10:59:27.300Z,51.30
2022-09-09T11:02:00.302Z,52.33
2022-09-09T11:04:35.254Z,51.67
2022-09-09T11:07:11.850Z,50.33
2022-09-09T11:09:45.349Z,49.97
2022-09-09T11:12:17.946Z,47.53
2022-09-09T11:14:48.490Z,48.20
2022-09-09T11:17:19.298Z,49.40
2022-09-09T11:19:49.016Z,50.50
2022-09-09T11:22:22.065Z,49.33
2022-09-09T11:24:55.413Z,52.97
2022-09-09T11:27:27.864Z,57.10
2022-09-09T11:30:27.158Z,49.87
2022-09-09T11:33:16.737Z,47.47
2022-09-09T11:36:04.477Z,53.00
2022-09-09T11:38:39.863Z,51.13
2022-09-09T11:41:10.084Z,52.53
2022-09-09T11:43:44.365Z,57.23
2022-09-09T11:46:12.765Z,55.97
2022-09-09T11:48:44.358Z,56.10
2022-09-09T11:51:17.322Z,59.33
2022-09-09T11:53:51.002Z,56.27
2022-09-09T11:56:28.467Z,63.27
2022-09-09T11:58:59.736Z,54.63
2022-09-09T12:01:42.603Z,60.77
2022-09-09T12:04:36.133Z,55.57
2022-09-09T12:07:22.746Z,58.30
2022-09-09T12:09:53.819Z,56.17
2022-09-09T12:12:28.025Z,61.13
2022-09-09T12:15:21.918Z,57.87
2022-09-09T12:17:52.447Z,56.57
2022-09-09T12:20:22.693Z,62.80
2022-09-09T12:23:22.787Z,59.10
2022-09-09T12:25:59.065Z,57.50
2022-09-09T12:28:33.046Z,56.97
2022-09-09T12:31:03.583Z,63.63
2022-09-09T12:33:37.316Z,61.37
2022-09-09T12:36:10.966Z,60.50
2022-09-09T12:38:42.655Z,65.23
2022-09-09T12:41:21.432Z,64.90
2022-09-09T12:43:50.985Z,58.00
2022-09-09T12:46:34.868Z,64.63
2022-09-09T12:49:03.271Z,66.17
2022-09-09T12:51:32.857Z,65.37
2022-09-09T12:54:02.930Z,62.83
2022-09-09T12:56:33.101Z,64.97
2022-09-09T12:59:02.318Z,69.33
2022-09-09T13:01:32.203Z,67.30
2022-09-09T13:04:00.793Z,68.43
2022-09-09T13:06:30.051Z,69.87
2022-09-09T13:09:00.542Z,70.03
2022-09-09T13:11:33.145Z,66.73
2022-09-09T13:14:03.401Z,68.30
2022-09-09T13:16:40.487Z,69.20
2022-09-09T13:19:15.387Z,71.60
2022-09-09T13:21:44.623Z,69.37
2022-09-09T13:24:29.466Z,70.37
2022-09-09T13:27:01.342Z,67.73
2022-09-09T13:29:30.158Z,67.43
2022-09-09T13:32:07.187Z,72.80
2022-09-09T13:34:37.339Z,70.13
2022-09-09T13:37:07.885Z,71.10
2022-09-09T13:39:37.492Z,68.00
2022-09-09T13:42:08.130Z,70.23
2022-09-09T13:44:39.200Z,66.53
2022-09-09T13:47:17.695Z,65.50
2022-09-09T13:49:46.790Z,66.13
2022-09-09T13:52:16.590Z,68.30
2022-09-09T13:54:45.143Z,68.37
2022-09-09T13:57:19.510Z,70.60
2022-09-09T14:00:04.224Z,71.47
2022-09-09T14:02:33.798Z,66.40
2022-09-09T14:05:03.847Z,67.47
2022-09-09T14:07:33.094Z,69.77
2022-09-09T14:10:03.572Z,71.53
2022-09-09T14:12:36.396Z,71.77
2022-09-09T14:15:05.484Z,70.90
2022-09-09T14:17:37.082Z,68.47
2022-09-09T14:20:08.845Z,70.60
2022-09-09T14:22:38.287Z,72.60
2022-09-09T14:25:07.365Z,71.97
2022-09-09T14:27:37.347Z,71.70
2022-09-09T14:30:06.240Z,70.70
2022-09-09T14:32:36.741Z,67.50
2022-09-09T14:35:05.613Z,71.13
2022-09-09T14:37:33.818Z,74.97
2022-09-09T14:40:01.957Z,74.10
2022-09-09T14:42:31.228Z,66.57
2022-09-09T14:45:00.653Z,70.40
2022-09-09T14:47:29.098Z,74.10
2022-09-09T14:49:57.162Z,71.57
2022-09-09T14:52:26.639Z,77.20
2022-09-09T14:54:55.466Z,76.57
2022-09-09T14:57:23.772Z,77.87
2022-09-09T14:59:52.361Z,75.80
2022-09-09T15:02:21.773Z,77.47
2022-09-09T15:04:50.853Z,74.23
2022-09-09T15:07:20.366Z,75.90
2022-09-09T15:09:49.571Z,72.40
2022-09-09T15:12:19.845Z,75.30
2022-09-09T15:14:48.132Z,74.73
2022-09-09T15:17:16.612Z,73.77
2022-09-09T15:19:46.715Z,74.33
2022-09-09T15:22:15.328Z,76.97
2022-09-09T15:24:43.675Z,70.37
2022-09-09T15:27:11.680Z,78.13
2022-09-09T15:29:40.514Z,81.80
2022-09-09T15:32:08.606Z,76.33
2022-09-09T15:34:36.716Z,77.00
2022-09-09T15:37:07.308Z,73.70
2022-09-09T15:39:38.716Z,77.37
2022-09-09T15:42:09.519Z,76.20
2022-09-09T15:44:43.152Z,61.40
2022-09-09T15:47:13.861Z,63.93
2022-09-09T15:49:42.006Z,73.33
2022-09-09T15:52:12.984Z,69.67
2022-09-09T15:54:41.230Z,73.73
2022-09-09T15:57:13.336Z,65.63
2022-09-09T15:59:41.382Z,66.03
2022-09-09T16:02:11.059Z,70.60
2022-09-09T16:04:39.262Z,71.67
2022-09-09T16:07:08.187Z,66.67
2022-09-09T16:09:40.499Z,70.33
2022-09-09T16:12:10.632Z,65.00
2022-09-09T16:14:39.804Z,71.80
2022-09-09T16:17:08.366Z,65.63
2022-09-09T16:19:36.833Z,90.40
2022-09-09T16:22:05.650Z,69.67
2022-09-09T16:24:33.743Z,80.43
2022-09-09T16:27:03.362Z,61.43
2022-09-09T16:29:31.599Z,67.80
2022-09-09T16:32:03.768Z,66.13
2022-09-09T16:34:34.703Z,68.77
2022-09-09T16:37:03.956Z,68.03
2022-09-09T16:39:32.101Z,62.20
2022-09-09T16:42:00.855Z,63.67
2022-09-09T16:44:31.019Z,65.87
2022-09-09T16:47:01.041Z,68.27
2022-09-09T16:49:30.298Z,69.73
2022-09-09T16:52:00.332Z,66.97
2022-09-09T16:54:29.881Z,73.57
2022-09-09T16:56:58.495Z,77.03
2022-09-09T16:59:27.487Z,81.03
2022-09-09T17:01:56.948Z,82.33
2022-09-09T17:04:29.600Z,86.20
2022-09-09T17:06:58.347Z,84.87
2022-09-09T17:09:29.988Z,79.53
2022-09-09T17:11:58.360Z,79.00
2022-09-09T17:14:26.916Z,78.53
2022-09-09T17:17:09.154Z,81.67
2022-09-09T17:19:44.867Z,77.97
2022-09-09T17:22:17.088Z,81.40
2022-09-09T17:24:46.886Z,80.07
2022-09-09T17:27:15.601Z,79.40
2022-09-09T17:29:44.344Z,78.70
2022-09-09T17:32:14.213Z,80.07
2022-09-09T17:34:42.762Z,79.03
2022-09-09T17:37:11.187Z,75.53
2022-09-09T17:39:39.728Z,76.50
2022-09-09T17:42:09.155Z,77.77
2022-09-09T17:44:37.453Z,79.70
2022-09-09T17:47:07.090Z,76.63
2022-09-09T17:49:36.624Z,80.43
2022-09-09T17:52:04.710Z,84.03
2022-09-09T17:54:33.929Z,79.83
2022-09-09T17:57:02.080Z,73.20
2022-09-09T17:59:30.072Z,75.10
2022-09-09T18:01:58.256Z,76.40
2022-09-09T18:04:26.419Z,71.93
2022-09-09T18:06:56.402Z,69.17
2022-09-09T18:09:26.432Z,69.93
2022-09-09T18:11:57.108Z,71.67
2022-09-09T18:14:28.001Z,71.80
2022-09-09T18:16:56.018Z,74.83
2022-09-09T18:19:25.670Z,72.20
2022-09-09T18:21:57.525Z,70.30
2022-09-09T18:24:28.754Z,67.53
2022-09-09T18:26:56.835Z,66.60
2022-09-09T18:29:26.256Z,69.07
2022-09-09T18:31:55.787Z,70.63
2022-09-09T18:34:25.659Z,69.10
2022-09-09T18:36:56.030Z,70.17
2022-09-09T18:39:27.219Z,68.63
2022-09-09T18:41:56.554Z,68.40
2022-09-09T18:44:26.909Z,70.57
2022-09-09T18:46:55.750Z,70.77
2022-09-09T18:49:25.851Z,74.77
2022-09-09T18:51:56.632Z,73.87
2022-09-09T18:54:26.670Z,75.73
2022-09-09T18:56:55.347Z,78.10
2022-09-09T18:59:25.598Z,73.67
2022-09-09T19:01:54.916Z,76.13
2022-09-09T19:04:23.887Z,76.87
2022-09-09T19:06:57.714Z,75.70
2022-09-09T19:09:31.185Z,74.50
2022-09-09T19:12:01.146Z,73.73
2022-09-09T19:14:30.124Z,76.43
2022-09-09T19:16:58.420Z,79.17
2022-09-09T19:19:28.097Z,75.10
2022-09-09T19:21:58.017Z,76.53
2022-09-09T19:24:29.612Z,79.73
2022-09-09T19:27:01.869Z,76.73
2022-09-09T19:29:31.914Z,72.43
2022-09-09T19:34:50.327Z,67.93
2022-09-09T19:37:18.983Z,77.47
2022-09-09T19:39:49.579Z,74.53
2022-09-09T19:42:18.389Z,74.50
2022-09-09T19:44:48.975Z,71.37
2022-09-09T19:47:17.926Z,76.50
2022-09-09T19:49:47.523Z,72.93
2022-09-09T19:52:24.085Z,71.70
2022-09-09T19:54:55.204Z,72.93
2022-09-09T19:57:23.766Z,71.30
2022-09-09T19:59:52.077Z,70.50
2022-09-09T20:02:21.055Z,71.23
2022-09-09T20:04:49.757Z,73.27
2022-09-09T20:07:19.109Z,74.77
2022-09-09T20:09:53.493Z,67.80
2022-09-09T20:12:22.532Z,73.57
2022-09-09T20:14:50.771Z,74.87
2022-09-09T20:17:19.481Z,74.60
2022-09-09T20:19:48.089Z,74.00
2022-09-09T20:22:16.971Z,69.73
2022-09-09T20:24:46.175Z,66.37
2022-09-09T20:27:17.715Z,69.70
2022-09-09T20:29:47.170Z,69.40
2022-09-09T20:32:15.317Z,67.07
2022-09-09T20:34:47.830Z,70.90
2022-09-09T20:37:17.021Z,68.07
2022-09-09T20:39:47.701Z,66.43
2022-09-09T20:42:19.480Z,69.23
2022-09-09T20:44:49.086Z,63.67
2022-09-09T20:47:17.935Z,60.80
2022-09-09T20:49:46.119Z,64.13
2022-09-09T20:52:15.374Z,63.23
2022-09-09T20:54:43.825Z,67.30
2022-09-09T20:57:16.990Z,65.33
2022-09-09T20:59:52.084Z,64.27
2022-09-09T21:02:20.383Z,65.30
2022-09-09T21:04:49.404Z,64.23
2022-09-09T21:07:17.644Z,61.07
2022-09-09T21:09:46.099Z,63.10
2022-09-09T21:12:14.423Z,64.87
2022-09-09T21:14:42.887Z,65.73
2022-09-09T21:17:12.583Z,66.50
2022-09-09T21:19:42.499Z,64.67
2022-09-09T21:22:11.456Z,63.53
2022-09-09T21:24:39.723Z,65.37
2022-09-09T21:27:07.886Z,68.30
2022-09-09T21:29:36.187Z,66.37
2022-09-09T21:32:04.574Z,64.50
2022-09-09T21:34:35.035Z,61.63
2022-09-09T21:37:03.182Z,62.50
2022-09-09T21:39:31.235Z,67.10
2022-09-09T21:41:59.354Z,66.83
2022-09-09T21:44:27.570Z,66.87
2022-09-09T21:46:55.558Z,63.17
2022-09-09T21:49:23.697Z,65.93
2022-09-09T21:51:53.188Z,70.17
2022-09-09T21:54:21.461Z,64.63
2022-09-09T21:56:51.793Z,67.60
2022-09-09T21:59:20.425Z,70.53
2022-09-09T22:01:48.600Z,66.73
2022-09-09T22:04:16.782Z,71.17
2022-09-09T22:06:44.846Z,69.00
2022-09-09T22:09:14.224Z,69.63
2022-09-09T22:11:42.645Z,68.53
2022-09-09T22:14:10.685Z,68.47
2022-09-09T22:16:39.900Z,67.23
2022-09-09T22:19:08.357Z,67.40
2022-09-09T22:21:36.314Z,71.30
2022-09-09T22:24:06.349Z,68.40
2022-09-09T22:26:37.463Z,69.87
2022-09-09T22:29:06.287Z,65.70
2022-09-09T22:31:36.037Z,66.77
2022-09-09T22:34:04.820Z,67.57
2022-09-09T22:36:33.070Z,74.70
2022-09-09T22:39:01.904Z,67.67
2022-09-09T22:41:32.234Z,69.43
2022-09-09T22:44:02.393Z,68.73
2022-09-09T22:46:30.483Z,71.97
2022-09-09T22:48:59.255Z,69.60
2022-09-09T22:51:27.376Z,75.33
2022-09-09T22:53:57.313Z,69.27
2022-09-09T22:56:25.497Z,70.97
2022-09-09T22:58:55.828Z,70.30
2022-09-09T23:01:27.027Z,73.97
2022-09-09T23:03:59.318Z,73.90
2022-09-09T23:06:28.821Z,76.10
2022-09-09T23:08:58.303Z,76.23
2022-09-09T23:11:31.130Z,75.83
2022-09-09T23:14:02.029Z,78.43
2022-09-09T23:16:33.819Z,74.10
2022-09-09T23:19:02.374Z,81.90
2022-09-09T23:21:31.361Z,81.30
2022-09-09T23:24:00.221Z,81.03
2022-09-09T23:26:29.917Z,80.53
2022-09-09T23:28:59.600Z,79.83
2022-09-09T23:31:29.282Z,75.87
2022-09-09T23:34:00.360Z,76.53
2022-09-09T23:36:29.998Z,78.67
2022-09-09T23:38:58.685Z,72.97
2022-09-09T23:41:28.183Z,75.07
2022-09-09T23:43:56.429Z,76.83
2022-09-09T23:46:27.353Z,72.73
2022-09-09T23:48:57.046Z,80.13
2022-09-09T23:51:28.943Z,82.27
2022-09-09T23:53:58.781Z,76.30
2022-09-09T23:56:28.729Z,77.03
2022-09-09T23:58:57.395Z,80.40
